Time;durP1;ratioP1;P1;durP2;ratioP2;P2;SDS_P1;SDS_P2;PMS_P1;PMS_P2;Temp;Humidity;BMP_temperature;BMP_pressure;BME280_temperature;BME280_humidity;BME280_pressure;Samples;Min_cycle;Max_cycle;Signal;HPM_P1;HPM_P2
2023/06/02 00:00:25;;;;;;;16.30;4.50;;;;;;;12.66;74.70;100948.38;5029310;28;20602;-75
2023/06/02 00:02:56;;;;;;;23.50;4.13;;;;;;;12.61;74.79;100953.09;5015707;28;20050;-75
2023/06/02 00:05:25;;;;;;;27.65;5.10;;;;;;;12.58;75.55;100941.88;5029212;28;20088;-75
2023/06/02 00:07:55;;;;;;;25.15;3.60;;;;;;;12.53;75.17;100952.72;5028425;28;20053;-75
2023/06/02 00:10:25;;;;;;;16.52;3.10;;;;;;;12.48;75.51;100960.09;5027124;28;20080;-77
2023/06/02 00:12:55;;;;;;;17.17;4.25;;;;;;;12.46;75.53;100958.47;5026799;28;20216;-75
2023/06/02 00:15:29;;;;;;;17.52;4.72;;;;;;;12.40;76.02;100959.69;5048704;28;20058;-76
2023/06/02 00:17:59;;;;;;;18.02;4.88;;;;;;;12.38;76.11;100967.72;5013250;28;20107;-76
2023/06/02 00:20:31;;;;;;;19.02;4.47;;;;;;;12.32;76.31;100959.31;5009598;28;20162;-77
2023/06/02 00:23:03;;;;;;;13.32;4.18;;;;;;;12.28;76.51;100957.78;5023453;28;20065;-76
2023/06/02 00:25:38;;;;;;;21.17;4.47;;;;;;;12.25;76.68;100968.53;4995155;28;20568;-74
2023/06/02 00:28:06;;;;;;;18.50;4.38;;;;;;;12.21;77.11;100967.03;5022508;28;20041;-76
2023/06/02 00:30:35;;;;;;;20.05;4.40;;;;;;;12.15;77.20;100953.25;5040929;28;20103;-75
2023/06/02 00:33:05;;;;;;;23.70;5.05;;;;;;;12.11;77.73;100959.69;5027707;28;20057;-74
2023/06/02 00:35:37;;;;;;;15.77;3.67;;;;;;;12.07;77.62;100959.97;5027753;28;20124;-75
2023/06/02 00:38:10;;;;;;;20.65;4.55;;;;;;;12.06;77.55;100948.53;5039105;28;20057;-74
2023/06/02 00:41:27;;;;;;;39.53;4.63;;;;;;;12.05;77.75;100948.63;5006844;28;20104;-75
2023/06/02 00:44:00;;;;;;;28.15;5.38;;;;;;;12.01;78.08;100947.09;5029208;28;20064;-74
2023/06/02 00:46:29;;;;;;;20.42;4.05;;;;;;;12.00;77.56;100955.97;5004238;28;20446;-74
2023/06/02 00:48:57;;;;;;;21.90;4.65;;;;;;;11.95;77.93;100953.59;5031320;28;20136;-75
2023/06/02 00:51:24;;;;;;;34.95;4.38;;;;;;;11.91;78.92;100957.38;5045526;28;20104;-74
2023/06/02 00:53:53;;;;;;;22.77;5.13;;;;;;;11.89;78.50;100949.56;5029052;28;20126;-74
2023/06/02 00:56:23;;;;;;;27.92;4.85;;;;;;;11.88;78.53;100963.66;5028307;28;20131;-75
2023/06/02 00:58:50;;;;;;;20.13;4.22;;;;;;;11.84;79.00;100958.66;5046599;28;20045;-75
2023/06/02 01:01:18;;;;;;;23.27;4.38;;;;;;;11.79;79.33;100958.03;5008672;28;20068;-75
2023/06/02 01:03:50;;;;;;;17.10;4.82;;;;;;;11.78;79.31;100959.84;5045900;28;20487;-74
2023/06/02 01:06:43;;;;;;;17.92;3.72;;;;;;;11.73;79.26;100953.13;5031628;28;20041;-74
2023/06/02 01:09:14;;;;;;;22.48;4.13;;;;;;;11.69;79.41;100963.00;5031929;28;20085;-75
2023/06/02 01:11:48;;;;;;;19.60;4.15;;;;;;;11.64;80.07;100957.16;5019309;28;20077;-75
2023/06/02 01:14:16;;;;;;;20.92;5.55;;;;;;;11.63;79.90;100960.75;5028932;28;20503;-75
2023/06/02 01:16:44;;;;;;;24.33;4.88;;;;;;;11.56;80.29;100962.88;5009688;28;20050;-75
2023/06/02 01:19:21;;;;;;;21.42;3.63;;;;;;;11.53;80.64;100965.69;5016963;28;21624;-76
2023/06/02 01:21:59;;;;;;;17.48;4.03;;;;;;;11.51;80.97;100964.91;5039014;28;20046;-77
2023/06/02 01:24:38;;;;;;;17.58;3.80;;;;;;;11.50;80.76;100972.94;5027860;28;20136;-76
2023/06/02 01:27:16;;;;;;;21.38;4.80;;;;;;;11.45;80.87;100969.72;5026928;28;20053;-75
2023/06/02 01:29:51;;;;;;;17.88;3.83;;;;;;;11.42;81.12;100970.72;5047926;28;20473;-76
2023/06/02 01:32:35;;;;;;;18.58;3.60;;;;;;;11.38;81.38;100974.47;5023396;28;20045;-74
2023/06/02 01:35:10;;;;;;;29.58;4.07;;;;;;;11.36;81.48;100973.72;5014408;28;20041;-75
2023/06/02 01:37:48;;;;;;;21.67;4.82;;;;;;;11.30;81.81;100960.88;5026166;28;20569;-75
2023/06/02 01:40:20;;;;;;;19.42;4.43;;;;;;;11.27;82.28;100976.88;5044842;28;20281;-75
2023/06/02 01:42:47;;;;;;;17.92;4.43;;;;;;;11.23;82.48;100976.19;5009166;28;20172;-76
2023/06/02 01:45:21;;;;;;;16.05;4.00;;;;;;;11.15;82.49;100976.59;5030101;28;20053;-74
2023/06/02 01:47:51;;;;;;;17.83;3.75;;;;;;;11.11;83.08;100977.72;5050351;28;20120;-76
2023/06/02 01:50:22;;;;;;;17.13;4.18;;;;;;;11.04;83.68;100981.63;5028937;28;20111;-74
2023/06/02 01:52:49;;;;;;;17.25;4.55;;;;;;;10.97;83.93;100982.88;5009587;28;20160;-75
2023/06/02 01:55:17;;;;;;;19.70;4.47;;;;;;;10.94;84.47;100977.78;5031993;28;20053;-74
2023/06/02 01:57:47;;;;;;;16.23;3.78;;;;;;;10.87;84.72;100979.06;5027058;28;20107;-75
2023/06/02 02:00:15;;;;;;;25.40;6.88;;;;;;;10.81;85.42;100982.91;5043179;28;20125;-74
2023/06/02 02:02:45;;;;;;;27.10;4.57;;;;;;;10.75;85.38;100985.00;5029556;28;20219;-75
2023/06/02 02:05:18;;;;;;;23.52;4.35;;;;;;;10.71;85.65;100986.09;5013064;28;20041;-74
2023/06/02 02:07:47;;;;;;;19.90;3.97;;;;;;;10.65;85.94;100985.50;5025164;28;20472;-74
2023/06/02 02:10:15;;;;;;;22.35;5.55;;;;;;;10.65;86.37;100984.63;5021057;28;20144;-74
2023/06/02 02:12:43;;;;;;;25.13;5.18;;;;;;;10.60;86.37;100986.69;5028651;28;20527;-74
2023/06/02 02:16:02;;;;;;;27.13;4.10;;;;;;;10.52;86.51;100980.97;5042708;28;20140;-76
2023/06/02 02:18:58;;;;;;;21.25;4.95;;;;;;;10.41;87.35;100985.94;5031391;28;20071;-74
2023/06/02 02:21:28;;;;;;;13.27;4.68;;;;;;;10.34;87.51;100994.16;5028177;28;20081;-75
2023/06/02 02:24:01;;;;;;;27.58;4.93;;;;;;;10.29;87.79;100992.69;5027775;28;20624;-74
2023/06/02 02:26:30;;;;;;;19.27;4.05;;;;;;;10.25;88.18;100999.88;5034732;28;20072;-74
2023/06/02 02:28:57;;;;;;;19.27;4.38;;;;;;;10.24;88.31;100999.94;5031168;28;20073;-74
2023/06/02 02:31:24;;;;;;;21.30;3.88;;;;;;;10.20;88.22;101004.50;5027256;28;20077;-75
2023/06/02 02:33:53;;;;;;;19.35;3.97;;;;;;;10.12;88.52;101004.03;5014421;28;20122;-74
2023/06/02 02:36:25;;;;;;;24.45;4.50;;;;;;;10.09;88.43;101005.06;5028355;28;20392;-75
2023/06/02 02:38:55;;;;;;;18.63;4.57;;;;;;;10.07;89.27;101013.94;5025742;28;20049;-75
2023/06/02 02:41:24;;;;;;;20.88;4.60;;;;;;;10.03;89.18;101008.00;5028759;28;20137;-75
2023/06/02 02:43:59;;;;;;;23.55;4.35;;;;;;;9.95;89.20;101004.03;5022485;28;20501;-76
2023/06/02 02:46:32;;;;;;;20.73;5.22;;;;;;;9.94;89.03;100997.09;5043604;28;20093;-75
2023/06/02 02:49:02;;;;;;;17.67;3.92;;;;;;;9.98;89.59;101007.38;5029599;28;20140;-77
2023/06/02 02:51:31;;;;;;;20.92;4.72;;;;;;;9.91;89.52;101008.63;5045321;28;20124;-76
2023/06/02 02:53:59;;;;;;;22.25;4.10;;;;;;;9.88;89.93;101014.03;5043909;28;20136;-76
2023/06/02 02:56:30;;;;;;;21.52;4.03;;;;;;;9.88;90.49;101016.66;5011452;28;20099;-75
2023/06/02 02:59:00;;;;;;;21.45;3.97;;;;;;;9.87;89.55;101017.59;5031303;28;20049;-75
2023/06/02 03:01:30;;;;;;;23.48;5.25;;;;;;;9.84;90.17;101012.47;5028525;28;20041;-75
2023/06/02 03:03:58;;;;;;;23.35;4.05;;;;;;;9.86;90.07;101026.38;5031013;28;20132;-76
2023/06/02 03:06:31;;;;;;;20.60;5.28;;;;;;;9.87;89.46;101026.34;5030692;28;20512;-75
2023/06/02 03:09:02;;;;;;;27.33;4.93;;;;;;;9.82;89.81;101025.72;5008856;28;20049;-75
2023/06/02 03:11:35;;;;;;;19.45;4.03;;;;;;;9.80;89.57;101031.97;5013235;28;20041;-74
2023/06/02 03:14:04;;;;;;;23.02;4.88;;;;;;;9.79;89.69;101033.75;5032070;28;20154;-75
2023/06/02 03:16:31;;;;;;;30.10;5.35;;;;;;;9.82;89.96;101036.22;5025476;28;20132;-74
2023/06/02 03:19:05;;;;;;;31.27;6.40;;;;;;;9.80;89.86;101026.69;5022237;28;20072;-76
2023/06/02 03:21:41;;;;;;;25.27;4.82;;;;;;;9.75;89.65;101026.06;5026278;28;20053;-76
2023/06/02 03:24:15;;;;;;;20.43;4.03;;;;;;;9.77;89.55;101030.34;5032146;28;20033;-76
2023/06/02 03:26:49;;;;;;;14.32;3.70;;;;;;;9.79;89.82;101032.88;5022620;28;20140;-76
2023/06/02 03:29:22;;;;;;;20.00;4.45;;;;;;;9.82;89.66;101027.50;5029287;28;20057;-76
2023/06/02 03:31:57;;;;;;;19.98;3.88;;;;;;;9.84;89.74;101033.50;5019797;28;20053;-76
2023/06/02 03:34:25;;;;;;;20.10;4.95;;;;;;;9.89;88.46;101039.38;5024820;28;20042;-75
2023/06/02 03:37:01;;;;;;;17.13;4.60;;;;;;;9.87;89.43;101046.53;5020598;28;20107;-74
2023/06/02 03:39:31;;;;;;;25.75;4.22;;;;;;;9.89;88.80;101036.75;5028381;28;20610;-75
2023/06/02 03:42:01;;;;;;;15.93;4.90;;;;;;;9.93;89.19;101040.94;5051442;28;20478;-75
2023/06/02 03:44:28;;;;;;;25.73;5.88;;;;;;;9.98;88.86;101036.31;5003081;28;20132;-74
2023/06/02 03:46:57;;;;;;;17.30;4.40;;;;;;;10.05;88.83;101042.97;5002541;28;20597;-74
2023/06/02 03:49:27;;;;;;;21.27;4.50;;;;;;;10.13;88.30;101039.94;5021518;28;20144;-74
2023/06/02 03:52:21;;;;;;;21.58;4.72;;;;;;;10.21;88.09;101044.81;5029576;28;20046;-74
2023/06/02 03:54:52;;;;;;;27.35;4.82;;;;;;;10.26;87.62;101050.72;5028243;28;20786;-75
2023/06/02 03:57:25;;;;;;;25.52;5.05;;;;;;;10.28;87.24;101056.78;5007954;28;20060;-74
2023/06/02 03:59:53;;;;;;;22.13;4.00;;;;;;;10.32;86.96;101060.97;5029200;28;20057;-73
2023/06/02 04:02:23;;;;;;;24.00;4.70;;;;;;;10.38;86.71;101061.50;5030690;28;20053;-74
2023/06/02 04:04:53;;;;;;;23.75;4.38;;;;;;;10.43;86.37;101058.63;5038312;28;20045;-75
2023/06/02 04:07:21;;;;;;;21.40;4.22;;;;;;;10.48;86.67;101063.66;5035092;28;20049;-73
2023/06/02 04:09:53;;;;;;;17.98;4.97;;;;;;;10.53;86.28;101064.25;5029779;28;20053;-74
2023/06/02 04:12:21;;;;;;;17.67;3.95;;;;;;;10.57;85.76;101061.38;5046632;28;20099;-75
2023/06/02 04:14:48;;;;;;;16.17;3.83;;;;;;;10.63;85.78;101062.88;5010713;28;20187;-75
2023/06/02 04:17:15;;;;;;;16.98;4.68;;;;;;;10.71;84.86;101070.34;5010443;28;20057;-73
2023/06/02 04:19:44;;;;;;;23.73;4.43;;;;;;;10.76;85.06;101077.09;5035616;28;20061;-72
2023/06/02 04:22:14;;;;;;;18.83;4.05;;;;;;;10.88;84.36;101076.44;5021911;28;20569;-74
2023/06/02 04:24:44;;;;;;;22.38;4.20;;;;;;;10.97;83.51;101082.16;5021053;28;20136;-75
2023/06/02 04:27:14;;;;;;;26.42;4.32;;;;;;;11.09;83.31;101077.09;5045215;28;20129;-75
2023/06/02 04:29:45;;;;;;;21.95;4.20;;;;;;;11.26;83.06;101075.34;5006556;28;20149;-74
2023/06/02 04:32:13;;;;;;;29.67;5.30;;;;;;;11.38;81.54;101086.03;5024862;28;20037;-74
2023/06/02 04:35:08;;;;;;;18.90;4.60;;;;;;;11.43;81.07;101075.22;5007757;28;20733;-75
2023/06/02 04:37:36;;;;;;;23.40;4.10;;;;;;;11.41;80.58;101075.31;5026787;28;20068;-74
2023/06/02 04:40:09;;;;;;;27.02;7.57;;;;;;;11.35;80.56;101083.56;5029294;28;20041;-74
2023/06/02 04:42:44;;;;;;;17.15;4.82;;;;;;;11.26;80.96;101081.44;5031334;28;20042;-74
2023/06/02 04:45:16;;;;;;;14.85;3.30;;;;;;;11.23;81.43;101084.25;5032123;28;20503;-73
2023/06/02 04:47:46;;;;;;;23.08;4.35;;;;;;;11.23;80.95;101084.25;5024354;28;20115;-74
2023/06/02 04:50:14;;;;;;;24.85;4.82;;;;;;;11.19;81.54;101087.13;5031394;28;21223;-74
2023/06/02 04:52:43;;;;;;;21.25;4.03;;;;;;;11.20;81.41;101088.81;5032201;28;20077;-74
2023/06/02 04:55:13;;;;;;;23.85;5.57;;;;;;;11.26;81.56;101086.72;5049621;28;20098;-75
2023/06/02 04:57:43;;;;;;;15.77;4.05;;;;;;;11.29;81.53;101083.91;5028406;28;20131;-74
2023/06/02 05:00:16;;;;;;;24.65;4.63;;;;;;;11.39;81.54;101090.38;5032730;28;20048;-74
2023/06/02 05:02:51;;;;;;;18.30;4.45;;;;;;;11.47;81.29;101095.22;5038342;28;20053;-74
2023/06/02 05:05:20;;;;;;;24.90;4.45;;;;;;;11.59;81.00;101096.34;5027546;28;20041;-75
2023/06/02 05:07:48;;;;;;;22.63;4.82;;;;;;;11.65;80.27;101095.97;5026690;28;20168;-75
2023/06/02 05:10:15;;;;;;;27.55;4.22;;;;;;;11.70;79.90;101095.72;5027008;28;20513;-75
2023/06/02 05:12:43;;;;;;;28.50;4.38;;;;;;;11.78;79.42;101102.28;5022183;28;20144;-74
2023/06/02 05:15:13;;;;;;;21.88;4.65;;;;;;;11.74;79.02;101098.09;5040400;28;20128;-74
2023/06/02 05:17:46;;;;;;;27.98;5.75;;;;;;;11.81;79.23;101106.53;5030073;28;20402;-74
2023/06/02 05:20:17;;;;;;;24.38;4.10;;;;;;;11.87;79.21;101100.94;5057438;28;20439;-74
2023/06/02 05:22:44;;;;;;;18.50;4.55;;;;;;;11.84;78.32;101093.19;5051268;28;20069;-74
2023/06/02 05:25:12;;;;;;;23.02;5.07;;;;;;;11.81;79.10;101102.13;5052946;28;20045;-74
2023/06/02 05:27:42;;;;;;;23.05;4.70;;;;;;;11.92;79.37;101106.81;5021361;28;20077;-73
2023/06/02 05:30:12;;;;;;;20.00;4.32;;;;;;;12.05;79.13;101107.81;5043138;28;20033;-73
2023/06/02 05:32:47;;;;;;;25.67;4.78;;;;;;;12.18;78.44;101112.38;5008096;28;20111;-73
2023/06/02 05:35:14;;;;;;;25.70;4.40;;;;;;;12.33;78.38;101111.47;5034102;28;20049;-75
2023/06/02 05:37:45;;;;;;;17.13;4.38;;;;;;;12.42;77.50;101119.72;5023601;28;20159;-74
2023/06/02 05:40:13;;;;;;;23.88;4.78;;;;;;;12.36;76.58;101120.06;5006088;28;20053;-73
2023/06/02 05:42:43;;;;;;;20.35;4.40;;;;;;;12.48;77.13;101125.59;5035093;28;20481;-77
2023/06/02 05:45:13;;;;;;;25.70;5.25;;;;;;;12.56;76.30;101129.50;5042346;28;20141;-74
2023/06/02 05:47:40;;;;;;;25.60;5.53;;;;;;;12.60;76.59;101132.78;5034411;28;20045;-73
2023/06/02 05:50:11;;;;;;;18.65;4.43;;;;;;;12.64;76.33;101127.22;5035298;28;20058;-75
2023/06/02 05:52:38;;;;;;;19.55;4.38;;;;;;;12.73;76.13;101140.81;5031943;28;20132;-74
2023/06/02 05:55:08;;;;;;;21.25;5.13;;;;;;;12.78;75.80;101141.41;5037469;28;20140;-73
2023/06/02 05:57:37;;;;;;;23.00;5.00;;;;;;;12.77;76.03;101142.34;5029600;28;20136;-76
2023/06/02 06:00:08;;;;;;;21.33;5.03;;;;;;;12.71;76.31;101143.56;5017714;28;20073;-75
2023/06/02 06:02:36;;;;;;;21.70;4.50;;;;;;;12.66;76.06;101148.28;5028171;28;20079;-74
2023/06/02 06:05:05;;;;;;;19.42;3.88;;;;;;;12.63;76.43;101145.81;5038656;28;20049;-75
2023/06/02 06:07:32;;;;;;;21.90;4.60;;;;;;;12.60;76.08;101148.63;5050044;28;20064;-73
2023/06/02 06:10:00;;;;;;;19.48;4.65;;;;;;;12.60;76.55;101153.91;5038114;28;20065;-75
2023/06/02 06:12:32;;;;;;;20.35;5.43;;;;;;;12.56;76.42;101160.31;5013460;28;20084;-75
2023/06/02 06:15:00;;;;;;;17.08;4.15;;;;;;;12.58;76.49;101153.16;5043496;28;20048;-73
2023/06/02 06:17:33;;;;;;;19.75;3.95;;;;;;;12.64;76.66;101160.72;4997202;28;20154;-77
2023/06/02 06:20:09;;;;;;;21.52;4.97;;;;;;;12.62;76.71;101157.31;5035978;28;20064;-75
2023/06/02 06:22:37;;;;;;;31.30;5.55;;;;;;;12.56;77.21;101158.53;5043796;28;20137;-76
2023/06/02 06:25:05;;;;;;;21.20;5.50;;;;;;;12.55;77.77;101154.19;5038571;28;20057;-74
2023/06/02 06:27:34;;;;;;;21.88;4.70;;;;;;;12.50;77.96;101150.09;5049646;28;20042;-74
2023/06/02 06:30:03;;;;;;;22.58;4.80;;;;;;;12.45;78.96;101154.81;5043647;28;20125;-74
2023/06/02 06:32:33;;;;;;;19.45;4.47;;;;;;;12.53;78.93;101152.59;5025670;28;20085;-73
2023/06/02 06:35:02;;;;;;;29.67;5.68;;;;;;;12.67;78.45;101160.53;5012969;28;20099;-73
2023/06/02 06:37:32;;;;;;;20.25;5.07;;;;;;;12.81;78.39;101168.50;5003763;28;20066;-75
2023/06/02 06:40:00;;;;;;;23.95;4.88;;;;;;;12.94;77.64;101165.97;5011982;28;20057;-75
2023/06/02 06:42:27;;;;;;;20.35;5.28;;;;;;;13.10;77.64;101172.03;5027826;28;20053;-75
2023/06/02 06:44:54;;;;;;;22.52;4.80;;;;;;;13.22;76.89;101164.28;5009597;28;20136;-74
2023/06/02 06:47:24;;;;;;;24.05;5.00;;;;;;;13.39;76.66;101175.56;5028633;28;20073;-76
2023/06/02 06:49:53;;;;;;;28.17;4.90;;;;;;;13.54;76.16;101175.53;5048072;28;20060;-73
2023/06/02 06:52:22;;;;;;;17.60;5.40;;;;;;;13.62;75.37;101181.22;5027726;28;20065;-75
2023/06/02 06:59:03;;;;;;;19.23;4.40;;;;;;;13.80;74.70;101184.50;5029587;28;20072;-76
2023/06/02 07:01:30;;;;;;;14.40;4.78;;;;;;;13.97;74.31;101183.44;5030001;28;20140;-75
2023/06/02 07:03:58;;;;;;;21.42;5.55;;;;;;;14.21;73.60;101184.47;5030186;28;20108;-76
2023/06/02 07:06:28;;;;;;;17.27;5.10;;;;;;;14.41;72.57;101204.38;5010592;28;20514;-75
2023/06/02 07:08:55;;;;;;;26.40;6.43;;;;;;;14.66;72.23;101190.38;5036134;28;20049;-74
2023/06/02 07:11:23;;;;;;;19.13;5.60;;;;;;;14.94;70.75;101186.69;5025114;28;20073;-76
2023/06/02 07:13:50;;;;;;;22.23;6.53;;;;;;;15.29;69.33;101189.56;5032279;28;20089;-75
2023/06/02 07:16:33;;;;;;;19.95;5.57;;;;;;;15.58;68.82;101198.16;5024974;28;20037;-76
2023/06/02 07:19:01;;;;;;;21.38;5.90;;;;;;;15.78;67.70;101201.22;5029539;28;20138;-75
2023/06/02 07:21:32;;;;;;;27.05;6.70;;;;;;;16.02;67.21;101195.94;5043911;28;20029;-76
2023/06/02 07:23:59;;;;;;;21.48;5.07;;;;;;;16.12;66.87;101205.81;5026617;28;20076;-75
2023/06/02 07:26:28;;;;;;;17.52;6.70;;;;;;;16.15;66.49;101205.56;5024077;28;20084;-76
2023/06/02 07:28:56;;;;;;;16.88;5.10;;;;;;;16.09;65.53;101202.50;5032344;28;20207;-76
2023/06/02 07:31:24;;;;;;;27.85;5.90;;;;;;;15.99;65.71;101212.97;5028142;28;20054;-75
2023/06/02 07:35:03;;;;;;;25.42;6.47;;;;;;;15.87;65.98;101205.88;5030297;28;20496;-75
2023/06/02 07:37:30;;;;;;;21.33;6.25;;;;;;;15.87;66.05;101212.03;5042893;28;21050;-75
2023/06/02 07:40:01;;;;;;;27.13;6.40;;;;;;;15.96;65.95;101213.16;5030300;28;20061;-75
2023/06/02 07:42:29;;;;;;;18.55;6.22;;;;;;;15.94;66.14;101204.47;5025977;28;20144;-74
2023/06/02 07:45:01;;;;;;;23.17;6.53;;;;;;;15.89;66.16;101212.75;5011710;28;20407;-76
2023/06/02 07:47:37;;;;;;;23.23;5.80;;;;;;;15.82;66.56;101215.97;5027903;28;20077;-77
2023/06/02 07:50:05;;;;;;;23.98;5.32;;;;;;;15.70;66.88;101217.69;5045333;28;20148;-74
2023/06/02 07:52:34;;;;;;;22.05;6.15;;;;;;;15.71;66.93;101219.38;5042544;28;20137;-76
2023/06/02 07:55:03;;;;;;;22.85;6.22;;;;;;;15.80;67.05;101223.19;5030619;28;20091;-75
2023/06/02 07:57:33;;;;;;;29.20;7.45;;;;;;;15.84;67.15;101217.53;5040034;28;20543;-76
2023/06/02 08:00:16;;;;;;;20.17;5.82;;;;;;;15.89;67.14;101219.88;5026876;28;20075;-78
2023/06/02 08:02:48;;;;;;;20.58;5.55;;;;;;;15.99;67.02;101212.13;5028733;28;20049;-77
2023/06/02 08:05:16;;;;;;;19.10;5.45;;;;;;;16.05;66.98;101217.81;5030648;28;20136;-78
2023/06/02 08:07:47;;;;;;;20.63;5.47;;;;;;;16.14;66.85;101233.09;5032177;28;20069;-76
2023/06/02 08:10:18;;;;;;;22.40;5.85;;;;;;;16.15;66.60;101237.44;5025450;28;20058;-76
2023/06/02 08:12:48;;;;;;;17.63;4.82;;;;;;;16.18;66.19;101234.56;5038410;28;20141;-75
2023/06/02 08:15:16;;;;;;;18.00;5.18;;;;;;;16.20;66.00;101237.09;5058239;28;20080;-76
2023/06/02 08:17:45;;;;;;;15.30;4.70;;;;;;;16.18;65.88;101231.06;5019062;28;20129;-75
2023/06/02 08:20:13;;;;;;;14.02;4.47;;;;;;;16.14;65.62;101237.56;5037724;28;20053;-75
2023/06/02 08:22:46;;;;;;;13.30;4.60;;;;;;;16.09;65.80;101234.38;5016965;28;20049;-74
2023/06/02 08:25:15;;;;;;;15.13;4.32;;;;;;;16.04;65.99;101242.69;5014413;28;20515;-74
2023/06/02 08:27:47;;;;;;;17.50;4.20;;;;;;;15.91;66.10;101241.88;5016478;28;20077;-73
2023/06/02 08:30:21;;;;;;;17.50;4.28;;;;;;;15.85;66.38;101239.63;5031502;28;20638;-74
2023/06/02 08:32:49;;;;;;;12.02;3.90;;;;;;;15.85;66.78;101236.97;5031316;28;20049;-74
2023/06/02 08:35:18;;;;;;;14.10;4.43;;;;;;;15.93;67.24;101240.78;5047400;28;20061;-75
2023/06/02 08:37:46;;;;;;;10.85;4.97;;;;;;;16.03;67.15;101237.47;5031579;28;20455;-76
2023/06/02 08:40:24;;;;;;;11.68;4.10;;;;;;;16.26;66.55;101235.81;5027316;28;20135;-74
2023/06/02 08:42:57;;;;;;;9.30;3.30;;;;;;;16.50;65.89;101241.13;5052588;28;20511;-75
2023/06/02 08:45:29;;;;;;;10.15;3.75;;;;;;;16.75;65.25;101238.38;5045345;28;20065;-73
2023/06/02 08:48:00;;;;;;;9.13;3.50;;;;;;;16.99;64.39;101235.66;5051677;28;20059;-74
2023/06/02 08:50:35;;;;;;;11.65;3.22;;;;;;;17.33;63.60;101243.72;5041150;28;20041;-74
2023/06/02 08:53:05;;;;;;;10.80;3.72;;;;;;;17.49;61.19;101249.56;5031610;28;20132;-73
2023/06/02 08:55:39;;;;;;;6.38;3.38;;;;;;;17.61;60.45;101247.75;5030744;28;20096;-75
2023/06/02 08:58:11;;;;;;;6.13;3.40;;;;;;;17.74;59.83;101255.63;5032428;28;20122;-75
2023/06/02 09:00:38;;;;;;;9.48;3.17;;;;;;;17.89;59.46;101257.94;5014129;28;20065;-74
2023/06/02 09:03:11;;;;;;;9.55;3.08;;;;;;;18.09;59.15;101256.31;5033040;28;20064;-73
2023/06/02 09:05:55;;;;;;;6.57;2.97;;;;;;;18.25;58.07;101260.44;5038034;28;20098;-74
2023/06/02 09:08:22;;;;;;;8.60;2.63;;;;;;;18.28;58.01;101252.16;5033518;28;20069;-74
2023/06/02 09:10:49;;;;;;;9.85;3.22;;;;;;;18.36;56.00;101250.56;5045126;28;20111;-74
2023/06/02 09:13:33;;;;;;;7.18;3.00;;;;;;;18.61;55.37;101253.91;5031311;28;20132;-75
2023/06/02 09:16:08;;;;;;;4.18;2.78;;;;;;;18.64;54.36;101254.50;5034490;28;20053;-75
2023/06/02 09:18:35;;;;;;;8.57;3.30;;;;;;;18.90;53.75;101243.50;5044747;28;20045;-74
2023/06/02 09:21:33;;;;;;;5.85;2.95;;;;;;;19.35;51.98;101252.06;5020219;28;20111;-74
2023/06/02 09:24:02;;;;;;;4.60;2.10;;;;;;;19.75;48.81;101254.00;5030387;28;20049;-75
2023/06/02 09:26:33;;;;;;;7.15;2.72;;;;;;;20.00;47.20;101255.38;5034890;28;20123;-74
2023/06/02 09:29:06;;;;;;;4.90;2.20;;;;;;;20.16;46.84;101263.69;5050096;28;20095;-74
2023/06/02 09:31:58;;;;;;;4.57;2.40;;;;;;;20.19;44.49;101274.13;5031920;28;20124;-74
2023/06/02 09:34:35;;;;;;;3.85;1.60;;;;;;;20.30;41.67;101270.47;5027588;28;20053;-75
2023/06/02 09:37:16;;;;;;;4.43;1.60;;;;;;;20.51;40.93;101277.59;5035782;28;20087;-75
2023/06/02 09:39:49;;;;;;;3.65;1.38;;;;;;;20.77;40.35;101278.75;5047065;28;20029;-75
2023/06/02 09:42:21;;;;;;;6.53;2.00;;;;;;;21.05;38.81;101273.50;5030759;28;20084;-75
2023/06/02 09:45:02;;;;;;;2.35;1.42;;;;;;;21.34;38.41;101282.34;5034687;28;20752;-74
2023/06/02 09:47:36;;;;;;;3.80;1.33;;;;;;;21.47;37.41;101280.22;5030707;28;20099;-75
2023/06/02 09:50:30;;;;;;;8.93;1.42;;;;;;;21.67;36.26;101282.84;5033042;28;20058;-75
2023/06/02 09:53:13;;;;;;;2.72;1.50;;;;;;;21.63;34.10;101295.69;5018637;28;20053;-74
2023/06/02 09:55:41;;;;;;;4.75;1.15;;;;;;;21.83;34.15;101300.97;5030110;28;20139;-74
2023/06/02 09:58:10;;;;;;;3.28;1.27;;;;;;;22.10;34.22;101298.31;5029082;28;20058;-74
2023/06/02 10:00:39;;;;;;;3.97;1.65;;;;;;;22.35;33.48;101290.59;5005960;28;21612;-73
2023/06/02 10:03:09;;;;;;;8.10;1.83;;;;;;;22.04;33.06;101300.75;5032893;28;20049;-74
2023/06/02 10:05:43;;;;;;;5.18;1.35;;;;;;;22.11;33.77;101301.84;5026616;28;20049;-74
2023/06/02 10:08:10;;;;;;;5.20;1.48;;;;;;;22.06;33.73;101298.75;5030314;28;20053;-73
2023/06/02 10:11:03;;;;;;;6.28;1.48;;;;;;;22.08;33.53;101303.00;5031626;28;20103;-75
2023/06/02 10:14:12;;;;;;;6.93;1.63;;;;;;;22.08;32.84;101316.41;5030348;28;20068;-74
2023/06/02 10:16:48;;;;;;;6.07;1.90;;;;;;;22.13;33.32;101307.94;5026448;28;20596;-75
2023/06/02 10:19:41;;;;;;;2.22;1.17;;;;;;;22.23;32.71;101320.28;5032742;28;20045;-75
2023/06/02 10:22:22;;;;;;;4.03;1.43;;;;;;;22.27;31.95;101315.47;5023123;28;20083;-74
2023/06/02 10:25:15;;;;;;;5.38;1.33;;;;;;;22.53;32.12;101314.78;5044705;28;20097;-74
2023/06/02 10:27:48;;;;;;;8.43;2.00;;;;;;;22.70;32.69;101327.38;5027246;28;20045;-74
2023/06/02 10:30:21;;;;;;;4.22;1.40;;;;;;;22.83;32.40;101317.09;5016434;28;20072;-74
2023/06/02 10:32:50;;;;;;;10.50;1.55;;;;;;;23.09;32.09;101322.53;5032855;28;20049;-74
2023/06/02 10:35:18;;;;;;;2.70;1.60;;;;;;;23.27;31.48;101325.22;5013574;28;20057;-75
2023/06/02 10:37:46;;;;;;;6.75;1.48;;;;;;;23.36;31.35;101324.28;5030445;28;20149;-74
2023/06/02 10:40:14;;;;;;;10.07;2.10;;;;;;;23.21;30.91;101326.69;5034055;28;20524;-74
2023/06/02 10:43:08;;;;;;;4.82;1.30;;;;;;;22.97;31.82;101326.50;5027598;28;20049;-74
2023/06/02 10:45:36;;;;;;;10.85;1.75;;;;;;;22.73;32.08;101321.69;5029080;28;20041;-75
2023/06/02 10:48:38;;;;;;;3.05;1.15;;;;;;;22.59;32.54;101315.00;5030117;28;20152;-75
2023/06/02 10:51:10;;;;;;;4.82;1.33;;;;;;;22.41;32.38;101320.34;5014682;28;20077;-75
2023/06/02 10:54:01;;;;;;;5.45;1.50;;;;;;;22.36;32.62;101313.75;5025985;28;20136;-75
2023/06/02 10:56:36;;;;;;;4.22;1.65;;;;;;;22.52;32.84;101313.09;5029535;28;20084;-75
2023/06/02 10:59:05;;;;;;;6.53;1.73;;;;;;;22.79;32.54;101309.50;5028078;28;20041;-75
2023/06/02 11:01:51;;;;;;;5.03;2.10;;;;;;;23.18;32.20;101310.88;5031230;28;20506;-74
2023/06/02 11:04:28;;;;;;;6.55;1.42;;;;;;;23.45;31.89;101307.22;5027279;28;20093;-74
2023/06/02 11:07:18;;;;;;;3.75;1.48;;;;;;;23.88;31.29;101310.03;5024922;28;20128;-74
2023/06/02 11:09:48;;;;;;;2.47;1.23;;;;;;;24.09;31.15;101310.47;5028136;28;20080;-74
2023/06/02 11:12:15;;;;;;;5.05;1.42;;;;;;;24.31;31.24;101305.47;5028339;28;20083;-75
2023/06/02 11:15:02;;;;;;;5.82;1.67;;;;;;;24.57;30.68;101298.19;5040767;28;20145;-74
2023/06/02 11:17:34;;;;;;;4.45;1.23;;;;;;;24.64;30.44;101299.22;5024888;28;20091;-75
2023/06/02 11:20:06;;;;;;;5.93;1.42;;;;;;;24.78;30.89;101304.97;5028765;28;20087;-74
2023/06/02 11:22:34;;;;;;;11.45;1.58;;;;;;;24.78;30.11;101299.56;5035344;28;20183;-74
2023/06/02 11:25:03;;;;;;;2.38;1.35;;;;;;;24.66;29.24;101307.13;5025090;28;20059;-74
2023/06/02 11:27:40;;;;;;;5.28;1.90;;;;;;;24.52;28.90;101307.75;5027350;28;20061;-75
2023/06/02 11:30:20;;;;;;;4.97;1.42;;;;;;;24.79;29.83;101301.25;5024268;28;20393;-75
2023/06/02 11:32:49;;;;;;;4.20;1.50;;;;;;;25.04;30.09;101302.09;5021459;28;20543;-74
2023/06/02 11:35:25;;;;;;;2.40;1.25;;;;;;;25.24;28.98;101295.38;5038908;28;20057;-74
2023/06/02 11:38:07;;;;;;;8.13;1.60;;;;;;;25.47;29.28;101292.81;5031231;28;20076;-75
2023/06/02 11:40:38;;;;;;;4.72;1.42;;;;;;;25.15;28.06;101302.63;5037592;28;20384;-74
2023/06/02 11:43:06;;;;;;;4.55;1.50;;;;;;;24.96;29.03;101302.94;5032733;28;20072;-74
2023/06/02 11:45:34;;;;;;;4.72;1.13;;;;;;;24.88;28.56;101303.78;5029513;28;20140;-73
2023/06/02 11:48:05;;;;;;;6.30;2.40;;;;;;;24.96;28.69;101302.94;5019468;28;20387;-74